KTEB/TEB METAR and TAF weather

Enter ICAO airport designator
Station Type Date Time Source
KTEB METAR 2019/09/20 09:51 UTC NOAA

KTEB 200951Z 00000KT 10SM CLR 11/07 A3025 RMK AO2 SLP245 T01060072


Station Type Date Time Source
KTEB Decoded METAR 2019/09/20 09:51 UTC NOAA

TETERBORO AIRPORT, NJ, United States (KTEB) 40-52N 74-03W 7M
Sep 20, 2019 - 05:51 AM EDT / 2019.09.20 0951 UTC
Wind: Calm:0
Visibility: 10 mile(s):0
Sky conditions: clear
Temperature: 51.1 F (10.6 C)
Dew Point: 45.0 F (7.2 C)
Relative Humidity: 79%
Pressure (altimeter): 30.25 in. Hg (1024 hPa)
ob: KTEB 200951Z 00000KT 10SM CLR 11/07 A3025 RMK AO2 SLP245 T01060072
cycle: 10

Station Type Date Time Source
KTEB TAF 2019/09/20 09:36 UTC NOAA

TAF
AMD KTEB 200833Z 2009/2112 VRB04KT P6SM SCT250
FM201400 29005KT P6SM SCT250
FM201700 27008KT P6SM SCT250
FM210000 VRB05KT P6SM SCT250
FM210900 29002KT P6SM FEW250

Example: see airport list